Pagrindinis puslapis
METAR-TAF:

METAR-TAF

Oro uostai :

Hooper Bay, Aliaska, Jungtinės Amerikos Valstijos

platuma: 61-31N, ilguma: 166-08W, Aukštis: 5 m

Dabartinis oras

Ataskaita buvo paskelbta 36 minutes, ne 01:56 UTC
Vėjas 9 kt iš Rytų
Temperatūra -21°C
Drėgmė 92%
Slėgis 1019 hPa
Matomumas: 16.1 km
Giedras dangus

METAR: PAHP 290156Z AUTO 09009KT 10SM CLR M21/M22 A3009 RMK AO2 SLP190 T12061222 FZRANO $

Laikas: 17:32 (02:32 UTC)


TAF: trūkstamas

Orai ataskaitas ir orų prognozės (METAR, TAF).

turimą stotys yra geltonos ir raudonos taškus žemėlapyje.

Perkelti pele per norėdami pamatyti stoties vardą.

Tada spustelėkite, norėdami matyti oro stebėjimo ir prognozės.

Norėdami pakeisti žemėlapį: spustelėkite ant žalios mygtukų su juodo kryžiaus žemyn,; žalią mygtuką su brūkšneliu, jei norite nutolinti; arba žalių rodyklių gretimoms žemėlapius.


METAR-TAF: